Time;durP1;ratioP1;P1;durP2;ratioP2;P2;SDS_P1;SDS_P2;PMS_P1;PMS_P2;Temp;Humidity;BMP_temperature;BMP_pressure;BME280_temperature;BME280_humidity;BME280_pressure;Samples;Min_cycle;Max_cycle;Signal;HPM_P1;HPM_P2
2022/12/13 00:01:50;;;;;;;;;;;;;;;21.39;35.78;94521.06;6124645;19;2125;-65
2022/12/13 00:03:54;;;;;;;;;;;;;;;21.38;36.12;94524.78;6098018;19;1850;-65
2022/12/13 00:05:57;;;;;;;;;;;;;;;21.37;36.38;94527.66;6123710;19;1136;-65
2022/12/13 00:08:01;;;;;;;;;;;;;;;21.36;36.67;94526.06;6125621;19;1934;-65
2022/12/13 00:10:08;;;;;;;;;;;;;;;21.39;36.24;94522.91;6124631;19;1913;-65
2022/12/13 00:12:11;;;;;;;;;;;;;;;21.35;36.80;94529.78;6122088;19;1910;-65
2022/12/13 00:14:15;;;;;;;;;;;;;;;21.36;36.13;94531.41;6105186;19;2100;-65
2022/12/13 00:16:21;;;;;;;;;;;;;;;21.32;36.51;94532.91;6121993;19;1615;-65
2022/12/13 00:18:24;;;;;;;;;;;;;;;21.34;36.51;94545.00;6123241;19;2090;-65
2022/12/13 00:20:28;;;;;;;;;;;;;;;21.36;36.33;94542.91;6122912;19;1832;-66
2022/12/13 00:22:32;;;;;;;;;;;;;;;21.36;36.62;94534.06;6121184;19;1930;-65
2022/12/13 00:24:35;;;;;;;;;;;;;;;21.32;36.51;94540.94;6124710;19;1919;-65
2022/12/13 00:26:41;;;;;;;;;;;;;;;21.33;36.43;94540.69;6096089;19;2023;-65
2022/12/13 00:28:46;;;;;;;;;;;;;;;21.36;36.35;94544.75;6126348;19;1926;-64
2022/12/13 00:30:50;;;;;;;;;;;;;;;21.35;36.67;94545.81;6121116;19;2137;-64
2022/12/13 00:32:53;;;;;;;;;;;;;;;21.37;36.43;94538.38;6122173;19;1639;-65
2022/12/13 00:34:56;;;;;;;;;;;;;;;21.37;36.73;94539.19;6121369;19;1920;-64
2022/12/13 00:37:03;;;;;;;;;;;;;;;21.37;36.32;94541.88;6108956;19;2013;-65
2022/12/13 00:39:06;;;;;;;;;;;;;;;21.36;36.26;94542.91;6110105;19;1993;-65
2022/12/13 00:41:14;;;;;;;;;;;;;;;21.39;35.94;94533.63;6123010;19;2225;-65
2022/12/13 00:43:21;;;;;;;;;;;;;;;21.36;35.95;94548.25;6122727;19;2110;-65
2022/12/13 00:45:24;;;;;;;;;;;;;;;21.34;36.17;94539.66;6123844;19;2065;-65
2022/12/13 00:47:28;;;;;;;;;;;;;;;21.34;36.15;94539.66;6123499;19;2033;-65
2022/12/13 00:49:31;;;;;;;;;;;;;;;21.34;36.23;94538.81;6096549;19;2240;-66
2022/12/13 00:51:35;;;;;;;;;;;;;;;21.30;36.33;94545.69;6122866;19;2125;-65
2022/12/13 00:53:38;;;;;;;;;;;;;;;21.37;36.08;94554.41;6123559;19;2116;-66
2022/12/13 00:55:42;;;;;;;;;;;;;;;21.33;36.17;94546.03;6122005;19;2026;-66
2022/12/13 00:57:45;;;;;;;;;;;;;;;21.36;36.15;94544.75;6123008;19;1941;-64
2022/12/13 00:59:52;;;;;;;;;;;;;;;21.33;36.01;94537.19;6109093;19;1927;-66
2022/12/13 01:01:55;;;;;;;;;;;;;;;21.34;36.31;94547.69;6109938;19;2023;-65
2022/12/13 01:04:00;;;;;;;;;;;;;;;21.34;35.72;94545.00;6124101;19;1932;-65
2022/12/13 01:06:03;;;;;;;;;;;;;;;21.38;35.86;94551.50;6121950;19;2151;-65
2022/12/13 01:08:06;;;;;;;;;;;;;;;21.33;36.05;94547.88;6124094;19;2100;-65
2022/12/13 01:10:10;;;;;;;;;;;;;;;21.31;36.46;94550.78;6121643;19;1623;-65
2022/12/13 01:12:14;;;;;;;;;;;;;;;21.33;36.56;94547.88;6094422;19;2203;-65
2022/12/13 01:14:18;;;;;;;;;;;;;;;21.34;36.81;94545.00;6125235;19;1902;-66
2022/12/13 01:16:24;;;;;;;;;;;;;;;21.34;36.12;94544.16;6121737;19;2101;-66
2022/12/13 01:18:27;;;;;;;;;;;;;;;21.36;36.16;94563.47;6119330;19;1910;-66
2022/12/13 01:20:30;;;;;;;;;;;;;;;21.31;36.18;94561.47;6125201;19;1906;-65
2022/12/13 01:22:33;;;;;;;;;;;;;;;21.34;36.45;94565.53;6112041;19;1850;-64
2022/12/13 01:24:37;;;;;;;;;;;;;;;21.32;36.17;94570.31;6106852;19;2068;-66
2022/12/13 01:26:40;;;;;;;;;;;;;;;21.34;36.07;94565.53;6122876;19;2014;-65
2022/12/13 01:28:44;;;;;;;;;;;;;;;21.37;36.31;94557.91;6122581;19;2134;-66
2022/12/13 01:30:55;;;;;;;;;;;;;;;21.36;36.30;94558.94;6119953;19;1340;-66
2022/12/13 01:33:01;;;;;;;;;;;;;;;21.37;36.26;94557.06;6119324;19;1045;-65
2022/12/13 01:35:04;;;;;;;;;;;;;;;21.37;36.17;94554.41;6094591;19;2031;-65
2022/12/13 01:37:07;;;;;;;;;;;;;;;21.38;35.91;94558.72;6119536;19;1321;-66
2022/12/13 01:39:11;;;;;;;;;;;;;;;21.35;36.12;94559.97;6120949;19;2178;-64
2022/12/13 01:41:15;;;;;;;;;;;;;;;21.33;36.56;94553.22;6121950;19;1951;-65
2022/12/13 01:43:19;;;;;;;;;;;;;;;21.31;36.38;94545.44;6122780;19;1538;-64
2022/12/13 01:45:24;;;;;;;;;;;;;;;21.32;36.33;94555.09;6122498;19;1931;-65
2022/12/13 01:47:30;;;;;;;;;;;;;;;21.35;36.57;94551.97;6095184;19;1762;-65
2022/12/13 01:49:36;;;;;;;;;;;;;;;21.34;36.52;94555.69;6122268;19;1981;-66
2022/12/13 01:51:41;;;;;;;;;;;;;;;21.33;36.24;94548.69;6119033;19;1827;-65
2022/12/13 01:53:45;;;;;;;;;;;;;;;21.33;36.51;94556.72;6122438;19;1721;-66
2022/12/13 01:55:51;;;;;;;;;;;;;;;21.35;35.65;94556.50;6120645;19;1584;-64
2022/12/13 01:57:56;;;;;;;;;;;;;;;21.31;36.28;94550.78;6097644;19;1960;-65
2022/12/13 02:00:00;;;;;;;;;;;;;;;21.32;36.43;94557.78;6122463;19;1859;-65
2022/12/13 02:02:03;;;;;;;;;;;;;;;21.30;36.33;94565.19;6122143;19;2063;-65
2022/12/13 02:04:07;;;;;;;;;;;;;;;21.31;36.08;94560.66;6122519;19;1689;-64
2022/12/13 02:06:15;;;;;;;;;;;;;;;21.28;36.15;94561.09;6123364;19;1842;-65
2022/12/13 02:08:18;;;;;;;;;;;;;;;21.29;36.41;94563.56;6122592;19;2071;-65
2022/12/13 02:10:21;;;;;;;;;;;;;;;21.33;36.49;94564.72;6096297;19;1900;-65
2022/12/13 02:12:25;;;;;;;;;;;;;;;21.34;36.27;94560.19;6121107;19;1944;-66
2022/12/13 02:14:29;;;;;;;;;;;;;;;21.31;35.85;94556.13;6121792;19;1798;-66
2022/12/13 02:16:40;;;;;;;;;;;;;;;21.31;36.10;94555.31;6120790;19;1795;-66
2022/12/13 02:18:51;;;;;;;;;;;;;;;21.27;36.07;94554.16;6121105;19;1790;-66
2022/12/13 02:21:01;;;;;;;;;;;;;;;21.29;36.07;94552.88;6096537;19;2089;-65
2022/12/13 02:23:19;;;;;;;;;;;;;;;21.31;36.15;94548.09;6122874;19;2249;-65
2022/12/13 02:25:39;;;;;;;;;;;;;;;21.30;36.19;94551.03;6120114;19;1538;-66
2022/12/13 02:27:51;;;;;;;;;;;;;;;21.29;35.94;94552.06;6121128;19;2095;-62
2022/12/13 02:30:16;;;;;;;;;;;;;;;21.30;36.22;94561.72;6120470;19;1893;-61
2022/12/13 02:32:27;;;;;;;;;;;;;;;21.31;36.23;94560.66;6095952;19;2107;-62
2022/12/13 02:34:35;;;;;;;;;;;;;;;21.31;35.92;94557.97;6119761;19;1905;-62
2022/12/13 02:36:43;;;;;;;;;;;;;;;21.31;35.68;94555.31;6120530;19;1954;-62
2022/12/13 02:38:51;;;;;;;;;;;;;;;21.31;36.00;94560.66;6119168;19;2098;-62
2022/12/13 02:40:57;;;;;;;;;;;;;;;21.32;35.62;94567.66;6120072;19;1823;-61
2022/12/13 02:43:04;;;;;;;;;;;;;;;21.29;36.03;94571.59;6108761;19;1865;-62
2022/12/13 02:45:09;;;;;;;;;;;;;;;21.30;35.69;94570.53;6107673;19;2035;-63
2022/12/13 02:47:14;;;;;;;;;;;;;;;21.33;35.70;94571.94;6118726;19;2023;-64
2022/12/13 02:49:21;;;;;;;;;;;;;;;21.34;35.71;94570.88;6121196;19;2145;-63
2022/12/13 02:51:25;;;;;;;;;;;;;;;21.30;35.57;94567.88;6121398;19;1700;-63
2022/12/13 02:53:29;;;;;;;;;;;;;;;21.31;35.63;94571.34;6119914;19;2091;-62
2022/12/13 02:55:34;;;;;;;;;;;;;;;21.29;35.89;94568.91;6092289;19;2121;-62
2022/12/13 02:57:39;;;;;;;;;;;;;;;21.31;35.93;94569.47;6119428;19;1724;-63
2022/12/13 02:59:42;;;;;;;;;;;;;;;21.31;35.55;94566.81;6121255;19;2098;-62
2022/12/13 03:01:51;;;;;;;;;;;;;;;21.35;35.46;94572.53;6119394;19;1947;-64
2022/12/13 03:03:57;;;;;;;;;;;;;;;21.34;35.76;94576.22;6119889;19;1680;-63
2022/12/13 03:08:27;;;;;;;;;;;;;;;21.32;35.68;94578.34;6120569;19;1938;-64
2022/12/13 03:10:34;;;;;;;;;;;;;;;21.36;35.54;94584.84;6120606;19;2171;-63
2022/12/13 03:15:00;;;;;;;;;;;;;;;21.34;35.61;94578.91;6122493;19;1759;-63
2022/12/13 03:17:05;;;;;;;;;;;;;;;21.28;35.76;94572.59;6106246;19;1849;-63
2022/12/13 03:19:10;;;;;;;;;;;;;;;21.32;35.88;94576.47;6106016;19;1922;-63
2022/12/13 03:21:16;;;;;;;;;;;;;;;21.32;35.98;94573.00;6120839;19;2297;-63
2022/12/13 03:23:20;;;;;;;;;;;;;;;21.34;35.78;94576.22;6118939;19;1898;-63
2022/12/13 03:25:24;;;;;;;;;;;;;;;21.31;36.09;94574.00;6118784;19;1846;-64
2022/12/13 03:27:28;;;;;;;;;;;;;;;21.33;36.00;94566.59;6120589;19;2004;-63
2022/12/13 03:29:31;;;;;;;;;;;;;;;21.32;36.29;94575.66;6092901;19;2248;-62
2022/12/13 03:31:34;;;;;;;;;;;;;;;21.36;36.02;94576.81;6118612;19;2092;-65
2022/12/13 03:33:38;;;;;;;;;;;;;;;21.32;35.93;94568.47;6119125;19;2175;-63
2022/12/13 03:35:42;;;;;;;;;;;;;;;21.29;36.09;94570.78;6117757;19;2076;-64
2022/12/13 03:37:48;;;;;;;;;;;;;;;21.31;35.93;94571.34;6120932;19;1870;-63
2022/12/13 03:39:51;;;;;;;;;;;;;;;21.31;36.14;94579.34;6105985;19;2173;-62
2022/12/13 03:41:54;;;;;;;;;;;;;;;21.28;36.58;94569.94;6103671;19;2049;-63
2022/12/13 03:43:58;;;;;;;;;;;;;;;21.32;36.41;94573.81;6121048;19;1957;-62
2022/12/13 03:46:01;;;;;;;;;;;;;;;21.32;35.90;94571.13;6117795;19;1937;-62
2022/12/13 03:48:04;;;;;;;;;;;;;;;21.36;36.02;94576.81;6121254;19;1713;-61
2022/12/13 03:50:08;;;;;;;;;;;;;;;21.36;36.29;94587.50;6116898;19;1815;-62
2022/12/13 03:52:11;;;;;;;;;;;;;;;21.37;36.84;94587.31;6090685;19;2130;-62
2022/12/13 03:54:17;;;;;;;;;;;;;;;21.40;36.81;94583.38;6116393;19;1729;-62
2022/12/13 03:56:21;;;;;;;;;;;;;;;21.40;36.65;94589.53;6116617;19;1938;-62
2022/12/13 03:58:24;;;;;;;;;;;;;;;21.44;37.42;94598.69;6118286;19;2104;-61
2022/12/13 04:00:27;;;;;;;;;;;;;;;21.44;37.18;94604.06;6115391;19;2115;-67
2022/12/13 04:02:30;;;;;;;;;;;;;;;21.42;37.28;94602.66;6105636;19;1861;-67
2022/12/13 04:04:34;;;;;;;;;;;;;;;21.45;37.38;94600.34;6106021;19;2108;-67
2022/12/13 04:06:37;;;;;;;;;;;;;;;21.46;37.05;94601.16;6118561;19;2128;-67
2022/12/13 04:08:41;;;;;;;;;;;;;;;21.46;36.91;94598.50;6116455;19;2093;-63
2022/12/13 04:10:47;;;;;;;;;;;;;;;21.20;32.67;94616.50;6116339;19;1071;-63
2022/12/13 04:15:20;;;;;;;;;;;;;;;11.80;34.14;94630.66;6091680;19;2180;-62
2022/12/13 04:17:24;;;;;;;;;;;;;;;10.07;36.66;94625.19;6120183;19;2045;-62
2022/12/13 04:19:27;;;;;;;;;;;;;;;9.30;37.22;94626.75;6124718;19;1913;-60
2022/12/13 04:21:30;;;;;;;;;;;;;;;8.48;38.35;94639.00;6126698;19;1911;-62
2022/12/13 04:23:33;;;;;;;;;;;;;;;9.38;36.79;94637.31;6124459;19;2080;-61
2022/12/13 04:25:37;;;;;;;;;;;;;;;8.52;37.64;94661.31;6113226;19;2165;-60
2022/12/13 04:27:43;;;;;;;;;;;;;;;8.65;36.84;94650.50;6110694;19;1909;-60
2022/12/13 04:29:46;;;;;;;;;;;;;;;8.13;37.13;94663.25;6125660;19;1907;-60
2022/12/13 04:31:49;;;;;;;;;;;;;;;8.72;37.58;94659.41;6124834;19;2112;-61
2022/12/13 04:33:53;;;;;;;;;;;;;;;12.89;34.15;94652.94;6124421;19;2765;-61
2022/12/13 04:35:56;;;;;;;;;;;;;;;15.49;31.67;94651.59;6121270;19;1033;-67
2022/12/13 04:37:59;;;;;;;;;;;;;;;16.79;31.00;94663.63;6096212;19;1617;-66
2022/12/13 04:40:03;;;;;;;;;;;;;;;17.57;30.98;94667.63;6125758;19;2092;-67
2022/12/13 04:42:06;;;;;;;;;;;;;;;18.05;30.60;94664.03;6124982;19;1978;-67
2022/12/13 04:44:12;;;;;;;;;;;;;;;18.39;30.08;94673.66;6125654;19;1952;-67
2022/12/13 04:46:15;;;;;;;;;;;;;;;18.66;30.35;94670.97;6123353;19;1982;-67
2022/12/13 04:48:19;;;;;;;;;;;;;;;18.87;30.54;94668.06;6109848;19;1171;-67
2022/12/13 04:50:22;;;;;;;;;;;;;;;19.05;30.24;94670.06;6108595;19;2032;-67
2022/12/13 04:52:25;;;;;;;;;;;;;;;19.22;30.36;94673.06;6122718;19;2099;-66
2022/12/13 04:54:29;;;;;;;;;;;;;;;19.35;30.58;94670.34;6124855;19;2093;-60
2022/12/13 04:56:32;;;;;;;;;;;;;;;19.45;30.99;94675.22;6124814;19;1920;-61
2022/12/13 04:58:35;;;;;;;;;;;;;;;19.55;30.52;94669.44;6122391;19;2110;-61
2022/12/13 05:00:41;;;;;;;;;;;;;;;19.60;30.76;94678.44;6095501;19;2135;-62
2022/12/13 05:02:45;;;;;;;;;;;;;;;19.21;30.59;94684.75;6123326;19;1964;-61
2022/12/13 05:04:48;;;;;;;;;;;;;;;19.33;31.38;94667.06;6122159;19;1867;-61
2022/12/13 05:06:51;;;;;;;;;;;;;;;19.59;31.30;94676.00;6122009;19;1798;-60
2022/12/13 05:08:55;;;;;;;;;;;;;;;19.72;31.25;94683.94;6122847;19;2034;-61
2022/12/13 05:10:58;;;;;;;;;;;;;;;19.76;31.01;94678.97;6121941;19;1062;-63
2022/12/13 05:13:01;;;;;;;;;;;;;;;19.82;30.93;94680.78;6101679;19;2164;-61
2022/12/13 05:15:05;;;;;;;;;;;;;;;19.86;31.28;94679.31;6119583;19;966;-61
2022/12/13 05:17:11;;;;;;;;;;;;;;;19.89;31.24;94687.72;6120930;19;1955;-62
2022/12/13 05:19:14;;;;;;;;;;;;;;;19.95;31.14;94679.88;6122538;19;1805;-62
2022/12/13 05:21:17;;;;;;;;;;;;;;;19.96;31.06;94677.00;6121964;19;2047;-62
2022/12/13 05:23:21;;;;;;;;;;;;;;;19.97;31.35;94685.81;6096705;19;1850;-63
2022/12/13 05:25:24;;;;;;;;;;;;;;;20.03;31.50;94687.59;6121173;19;1347;-60
2022/12/13 05:27:28;;;;;;;;;;;;;;;20.09;30.44;94684.09;6119817;19;982;-61
2022/12/13 05:29:31;;;;;;;;;;;;;;;20.13;30.15;94689.81;6118071;19;1869;-61
2022/12/13 05:31:34;;;;;;;;;;;;;;;20.16;29.71;94692.03;6118083;19;1047;-60
2022/12/13 05:33:40;;;;;;;;;;;;;;;20.20;29.56;94691.38;6116535;19;1073;-61
2022/12/13 05:35:44;;;;;;;;;;;;;;;20.27;29.72;94694.81;6091214;19;1895;-61
2022/12/13 05:37:47;;;;;;;;;;;;;;;20.27;29.67;94694.81;6115088;19;1052;-62
2022/12/13 05:39:51;;;;;;;;;;;;;;;20.28;29.99;94691.09;6116191;19;1061;-62
2022/12/13 05:41:55;;;;;;;;;;;;;;;20.28;29.73;94708.97;6116639;19;1057;-62
2022/12/13 05:43:58;;;;;;;;;;;;;;;20.33;30.28;94714.47;6116827;19;1853;-63
2022/12/13 05:46:02;;;;;;;;;;;;;;;20.34;30.68;94716.94;6096861;19;2122;-64
2022/12/13 05:48:05;;;;;;;;;;;;;;;20.39;30.61;94718.16;6120227;19;1955;-60
2022/12/13 05:50:12;;;;;;;;;;;;;;;20.39;30.96;94710.97;6120046;19;1062;-62
2022/12/13 05:52:19;;;;;;;;;;;;;;;20.41;30.71;94724.09;6120082;19;1133;-60
2022/12/13 05:54:22;;;;;;;;;;;;;;;20.42;30.98;94718.53;6119120;19;1026;-60
2022/12/13 05:56:26;;;;;;;;;;;;;;;20.42;30.93;94725.72;6119600;19;1053;-60
2022/12/13 05:58:29;;;;;;;;;;;;;;;20.43;30.79;94720.19;6093500;19;1432;-61
2022/12/13 06:00:32;;;;;;;;;;;;;;;20.42;31.22;94723.88;6119089;19;1053;-62
2022/12/13 06:02:38;;;;;;;;;;;;;;;20.44;31.46;94732.50;6120218;19;1834;-62
2022/12/13 06:04:42;;;;;;;;;;;;;;;20.46;31.12;94730.44;6121132;19;1037;-62
2022/12/13 06:06:47;;;;;;;;;;;;;;;20.46;31.14;94734.91;6119886;19;1877;-61
2022/12/13 06:08:51;;;;;;;;;;;;;;;20.48;31.42;94727.53;6092399;19;1226;-61
2022/12/13 06:10:56;;;;;;;;;;;;;;;20.49;31.33;94742.53;6120337;19;1750;-61
2022/12/13 06:12:59;;;;;;;;;;;;;;;20.48;31.52;94732.84;6118931;19;1040;-63
2022/12/13 06:15:03;;;;;;;;;;;;;;;20.48;31.44;94738.19;6119867;19;967;-61
2022/12/13 06:17:06;;;;;;;;;;;;;;;20.47;31.49;94733.91;6119387;19;1400;-63
2022/12/13 06:19:09;;;;;;;;;;;;;;;20.51;31.46;94743.09;6119091;19;1382;-61
2022/12/13 06:21:13;;;;;;;;;;;;;;;20.49;31.22;94739.84;6091815;19;2116;-61
2022/12/13 06:23:18;;;;;;;;;;;;;;;20.50;31.31;94736.94;6119517;19;1841;-63
2022/12/13 06:25:22;;;;;;;;;;;;;;;20.51;31.50;94732.41;6118700;19;1144;-61
2022/12/13 06:27:25;;;;;;;;;;;;;;;20.49;31.54;94734.50;6118429;19;1125;-61
2022/12/13 06:29:28;;;;;;;;;;;;;;;20.51;31.24;94724.41;6117241;19;1066;-61
2022/12/13 06:31:32;;;;;;;;;;;;;;;20.49;31.03;94729.19;6093339;19;2127;-62
2022/12/13 06:33:37;;;;;;;;;;;;;;;20.49;31.46;94730.00;6119659;19;2078;-61
2022/12/13 06:35:41;;;;;;;;;;;;;;;20.51;31.40;94727.91;6117729;19;987;-61
2022/12/13 06:37:44;;;;;;;;;;;;;;;20.53;31.42;94735.69;6116353;19;1080;-61
2022/12/13 06:39:50;;;;;;;;;;;;;;;20.50;31.69;94736.94;6119658;19;1113;-63
2022/12/13 06:41:53;;;;;;;;;;;;;;;20.50;31.50;94746.81;6119695;19;1013;-61
2022/12/13 06:43:57;;;;;;;;;;;;;;;20.54;31.37;94748.00;6091316;19;1853;-61
2022/12/13 06:46:00;;;;;;;;;;;;;;;20.55;31.20;94750.47;6119836;19;970;-68
2022/12/13 06:48:03;;;;;;;;;;;;;;;20.55;31.24;94755.00;6119819;19;1018;-67
2022/12/13 06:50:08;;;;;;;;;;;;;;;20.54;31.15;94759.53;6117895;19;1057;-68
2022/12/13 06:52:12;;;;;;;;;;;;;;;20.55;31.18;94755.00;6120329;19;982;-67
2022/12/13 06:54:15;;;;;;;;;;;;;;;20.55;31.64;94750.47;6093421;19;1191;-68
2022/12/13 06:56:21;;;;;;;;;;;;;;;20.55;31.58;94755.00;6118785;19;1161;-68
2022/12/13 06:58:25;;;;;;;;;;;;;;;20.53;31.64;94751.72;6119094;19;1279;-62
2022/12/13 07:00:28;;;;;;;;;;;;;;;20.54;31.97;94759.53;6117957;19;1073;-62
2022/12/13 07:02:32;;;;;;;;;;;;;;;20.50;31.88;94757.50;6118067;19;994;-62
2022/12/13 07:04:35;;;;;;;;;;;;;;;20.53;31.95;94752.53;6117479;19;1846;-60
2022/12/13 07:06:38;;;;;;;;;;;;;;;20.53;31.68;94751.72;6092016;19;1426;-61
2022/12/13 07:08:42;;;;;;;;;;;;;;;20.54;31.37;94748.84;6118615;19;1046;-61
2022/12/13 07:10:45;;;;;;;;;;;;;;;20.54;31.24;94753.34;6118725;19;1303;-62
2022/12/13 07:12:52;;;;;;;;;;;;;;;20.52;31.62;94763.44;6118217;19;1050;-60
2022/12/13 07:14:55;;;;;;;;;;;;;;;20.53;31.38;94767.72;6117888;19;966;-61
2022/12/13 07:17:00;;;;;;;;;;;;;;;20.52;31.76;94764.25;6093018;19;2014;-63
2022/12/13 07:19:04;;;;;;;;;;;;;;;20.53;31.88;94767.72;6117146;19;1358;-61
2022/12/13 07:21:08;;;;;;;;;;;;;;;20.52;31.48;94772.25;6116108;19;1983;-62
2022/12/13 07:23:12;;;;;;;;;;;;;;;20.52;31.64;94782.13;6116890;19;1855;-62
2022/12/13 07:25:15;;;;;;;;;;;;;;;20.56;31.86;94783.31;6118540;19;1027;-61
2022/12/13 07:27:18;;;;;;;;;;;;;;;20.55;31.80;94781.69;6118189;19;1021;-62
2022/12/13 07:29:24;;;;;;;;;;;;;;;20.53;31.37;94794.41;6090637;19;2026;-61
2022/12/13 07:31:28;;;;;;;;;;;;;;;20.52;nan;94792.78;6116750;19;1419;-60
2022/12/13 07:33:31;;;;;;;;;;;;;;;20.54;31.75;94788.88;6119017;19;1231;-60
2022/12/13 07:35:35;;;;;;;;;;;;;;;20.56;31.70;94788.66;6115932;19;1357;-61
2022/12/13 07:37:38;;;;;;;;;;;;;;;20.53;31.96;94792.56;6117039;19;1306;-61
2022/12/13 07:39:42;;;;;;;;;;;;;;;20.56;32.07;94794.78;6090596;19;1265;-61
2022/12/13 07:41:45;;;;;;;;;;;;;;;20.55;32.13;94789.69;6115776;19;2213;-64
2022/12/13 07:43:49;;;;;;;;;;;;;;;20.55;31.93;94787.03;6116585;19;1865;-60
2022/12/13 07:45:55;;;;;;;;;;;;;;;20.53;32.20;94791.75;6118579;19;1032;-62
2022/12/13 07:47:58;;;;;;;;;;;;;;;20.54;31.94;94793.38;6116928;19;1061;-61
2022/12/13 07:50:01;;;;;;;;;;;;;;;20.54;32.04;94788.88;6118832;19;1067;-64
2022/12/13 07:52:04;;;;;;;;;;;;;;;20.54;31.82;94798.72;6095815;19;2104;-61
2022/12/13 07:54:08;;;;;;;;;;;;;;;20.52;31.19;94800.81;6123989;19;1140;-61
2022/12/13 07:56:12;;;;;;;;;;;;;;;20.51;30.75;94799.16;6121840;19;1066;-62
2022/12/13 07:58:16;;;;;;;;;;;;;;;20.48;30.73;94803.06;6123644;19;1046;-63
2022/12/13 08:00:21;;;;;;;;;;;;;;;20.46;30.95;94804.31;6121742;19;1040;-69
2022/12/13 08:02:27;;;;;;;;;;;;;;;20.52;31.10;94808.81;6098758;19;1044;-70
2022/12/13 08:04:31;;;;;;;;;;;;;;;20.53;31.22;94805.09;6121350;19;1845;-68
2022/12/13 08:06:36;;;;;;;;;;;;;;;20.53;31.77;94799.75;6123759;19;1124;-64
2022/12/13 08:08:40;;;;;;;;;;;;;;;20.50;31.77;94798.34;6124331;19;1294;-62
2022/12/13 08:10:43;;;;;;;;;;;;;;;20.48;31.35;94797.72;6121432;19;1018;-62
2022/12/13 08:12:46;;;;;;;;;;;;;;;20.49;31.21;94803.91;6123362;19;988;-61
2022/12/13 08:14:50;;;;;;;;;;;;;;;20.42;30.92;94803.13;6095334;19;1553;-62
2022/12/13 08:16:53;;;;;;;;;;;;;;;20.43;31.11;94812.75;6123593;19;1049;-62
2022/12/13 08:18:59;;;;;;;;;;;;;;;20.41;30.95;94815.66;6120730;19;1981;-63
2022/12/13 08:21:03;;;;;;;;;;;;;;;20.41;30.62;94809.50;6123252;19;1116;-62
2022/12/13 08:23:06;;;;;;;;;;;;;;;20.39;30.78;94811.56;6123136;19;1148;-62
2022/12/13 08:25:10;;;;;;;;;;;;;;;20.39;30.60;94816.91;6095739;19;1822;-63
2022/12/13 08:27:14;;;;;;;;;;;;;;;20.37;30.75;94821.63;6120597;19;1339;-63
2022/12/13 08:29:17;;;;;;;;;;;;;;;20.41;30.60;94825.50;6121564;19;986;-64
2022/12/13 08:31:20;;;;;;;;;;;;;;;20.39;30.29;94823.03;6120597;19;1270;-62
2022/12/13 08:33:23;;;;;;;;;;;;;;;20.38;30.38;94824.09;6123580;19;1045;-63
2022/12/13 08:35:31;;;;;;;;;;;;;;;20.38;30.38;94808.06;6122692;19;982;-62
2022/12/13 08:37:34;;;;;;;;;;;;;;;20.38;31.17;94805.41;6095143;19;1514;-61
2022/12/13 08:39:38;;;;;;;;;;;;;;;20.41;31.42;94812.16;6121122;19;974;-62
2022/12/13 08:41:42;;;;;;;;;;;;;;;20.43;31.33;94791.41;6120550;19;971;-61
2022/12/13 08:43:45;;;;;;;;;;;;;;;20.44;31.60;94795.72;6122532;19;1841;-64
2022/12/13 08:45:51;;;;;;;;;;;;;;;20.47;31.51;94798.75;6121414;19;1025;-62
2022/12/13 08:47:54;;;;;;;;;;;;;;;20.44;31.50;94801.06;6095673;19;1380;-63
2022/12/13 08:50:00;;;;;;;;;;;;;;;20.42;30.63;94792.44;6120828;19;1385;-62
2022/12/13 08:52:06;;;;;;;;;;;;;;;20.40;30.92;94789.16;6122320;19;954;-63
2022/12/13 08:54:09;;;;;;;;;;;;;;;20.36;30.75;94778.09;6123496;19;1204;-62
2022/12/13 08:56:14;;;;;;;;;;;;;;;20.38;31.45;94775.25;6121935;19;1070;-61
2022/12/13 08:58:17;;;;;;;;;;;;;;;20.38;31.27;94776.06;6122502;19;1021;-63
2022/12/13 09:00:21;;;;;;;;;;;;;;;20.42;31.70;94771.09;6096864;19;1660;-61
2022/12/13 09:02:24;;;;;;;;;;;;;;;20.42;31.41;94776.44;6122263;19;1568;-62
2022/12/13 09:04:28;;;;;;;;;;;;;;;20.47;31.51;94780.09;6119959;19;1863;-62
2022/12/13 09:06:31;;;;;;;;;;;;;;;20.49;31.47;94787.88;6120068;19;1061;-62
2022/12/13 09:08:37;;;;;;;;;;;;;;;20.47;31.56;94777.41;6121935;19;1011;-62
2022/12/13 09:10:41;;;;;;;;;;;;;;;20.48;31.76;94781.72;6096692;19;2371;-63
2022/12/13 09:12:44;;;;;;;;;;;;;;;20.50;31.51;94778.84;6120075;19;2222;-62
2022/12/13 09:14:47;;;;;;;;;;;;;;;20.50;31.55;94778.84;6122043;19;1104;-62
2022/12/13 09:16:51;;;;;;;;;;;;;;;20.49;31.91;94774.53;6120100;19;1144;-62
2022/12/13 09:18:54;;;;;;;;;;;;;;;20.53;nan;94770.41;6119300;19;1997;-64
2022/12/13 09:20:58;;;;;;;;;;;;;;;20.54;31.42;94764.00;6120142;19;1024;-63
2022/12/13 09:23:04;;;;;;;;;;;;;;;20.48;31.42;94764.88;6095442;19;2017;-62
2022/12/13 09:25:11;;;;;;;;;;;;;;;20.50;31.07;94760.97;6120837;19;1853;-63
2022/12/13 09:27:14;;;;;;;;;;;;;;;20.51;31.42;94753.78;6120941;19;1049;-63
2022/12/13 09:29:17;;;;;;;;;;;;;;;20.50;30.75;94752.97;6119871;19;967;-63
2022/12/13 09:31:21;;;;;;;;;;;;;;;20.48;30.65;94756.88;6119994;19;1275;-63
2022/12/13 09:33:25;;;;;;;;;;;;;;;20.50;30.93;94738.81;6094317;19;1269;-63
2022/12/13 09:35:30;;;;;;;;;;;;;;;20.47;30.31;94747.25;6119474;19;1048;-64
2022/12/13 09:37:33;;;;;;;;;;;;;;;20.47;30.26;94742.72;6119829;19;1044;-63
2022/12/13 09:39:36;;;;;;;;;;;;;;;20.45;30.47;94752.78;6120150;19;1045;-62
2022/12/13 09:41:44;;;;;;;;;;;;;;;20.46;30.56;94751.78;6120398;19;1125;-62
2022/12/13 09:43:49;;;;;;;;;;;;;;;20.43;30.73;94740.69;6116975;19;1021;-64
2022/12/13 09:45:53;;;;;;;;;;;;;;;20.43;31.22;94732.69;6104958;19;2120;-63
2022/12/13 09:47:58;;;;;;;;;;;;;;;20.36;31.43;94745.25;6119373;19;1029;-62
2022/12/13 09:50:03;;;;;;;;;;;;;;;20.39;31.27;94744.84;6119797;19;1065;-62
2022/12/13 09:52:08;;;;;;;;;;;;;;;20.39;31.30;94744.84;6119154;19;1196;-63
2022/12/13 09:54:15;;;;;;;;;;;;;;;20.47;31.70;94744.59;6122049;19;1291;-63
2022/12/13 09:56:20;;;;;;;;;;;;;;;20.47;31.50;94736.56;6095688;19;2184;-62
2022/12/13 09:58:27;;;;;;;;;;;;;;;20.62;31.32;94737.06;6119364;19;1132;-62
2022/12/13 10:00:36;;;;;;;;;;;;;;;20.76;31.52;94729.75;6119379;19;1128;-69
2022/12/13 10:02:44;;;;;;;;;;;;;;;20.85;31.30;94738.28;6119951;19;1136;-69
2022/12/13 10:04:47;;;;;;;;;;;;;;;20.98;31.56;94738.19;6120081;19;1841;-70
2022/12/13 10:06:53;;;;;;;;;;;;;;;21.07;31.11;94733.34;6109725;19;1460;-70
2022/12/13 10:08:57;;;;;;;;;;;;;;;21.13;31.05;94729.78;6108990;19;1427;-70
2022/12/13 10:11:01;;;;;;;;;;;;;;;21.16;31.51;94730.16;6119833;19;1337;-70
2022/12/13 10:13:10;;;;;;;;;;;;;;;21.26;31.08;94723.53;6118400;19;1057;-71
2022/12/13 10:15:19;;;;;;;;;;;;;;;21.34;31.22;94725.88;6120579;19;1037;-70
2022/12/13 10:17:24;;;;;;;;;;;;;;;21.37;31.02;94725.44;6119759;19;1147;-71
2022/12/13 10:19:30;;;;;;;;;;;;;;;21.36;30.98;94713.94;6097808;19;1377;-69
2022/12/13 10:21:37;;;;;;;;;;;;;;;21.37;31.26;94720.09;6120067;19;1057;-65
2022/12/13 10:23:41;;;;;;;;;;;;;;;21.43;31.11;94719.22;6120294;19;1041;-65
2022/12/13 10:25:53;;;;;;;;;;;;;;;21.42;31.30;94706.88;6118301;19;1846;-65
2022/12/13 10:27:56;;;;;;;;;;;;;;;21.45;31.14;94706.44;6120500;19;1021;-70
2022/12/13 10:30:01;;;;;;;;;;;;;;;21.49;31.16;94706.81;6100080;19;1485;-70
2022/12/13 10:32:13;;;;;;;;;;;;;;;21.47;31.08;94703.53;6119043;19;1133;-69
2022/12/13 10:34:20;;;;;;;;;;;;;;;21.52;31.36;94703.69;6119833;19;962;-64
2022/12/13 10:36:35;;;;;;;;;;;;;;;21.47;31.23;94693.66;6119126;19;1331;-63
2022/12/13 10:38:39;;;;;;;;;;;;;;;21.43;31.17;94687.16;6120023;19;1025;-63
2022/12/13 10:40:45;;;;;;;;;;;;;;;21.39;31.20;94677.94;6107850;19;1202;-65
2022/12/13 10:43:01;;;;;;;;;;;;;;;21.35;31.41;94682.09;6106190;19;1898;-65
2022/12/13 10:45:13;;;;;;;;;;;;;;;21.34;31.59;94677.78;6118654;19;1859;-63
2022/12/13 10:47:22;;;;;;;;;;;;;;;21.31;31.61;94676.38;6119407;19;1045;-64
2022/12/13 10:49:26;;;;;;;;;;;;;;;21.29;31.47;94675.00;6119554;19;1141;-64
2022/12/13 10:51:39;;;;;;;;;;;;;;;21.28;31.81;94676.00;6118364;19;1021;-64
2022/12/13 10:53:46;;;;;;;;;;;;;;;21.28;31.78;94668.00;6095040;19;2320;-64
2022/12/13 10:55:56;;;;;;;;;;;;;;;21.22;32.03;94667.84;6117377;19;1906;-64
2022/12/13 10:58:00;;;;;;;;;;;;;;;21.21;32.19;94674.25;6118452;19;1054;-65
2022/12/13 11:00:05;;;;;;;;;;;;;;;21.18;31.81;94657.84;6119402;19;1061;-64
2022/12/13 11:02:28;;;;;;;;;;;;;;;21.14;32.35;94657.47;6118624;19;1216;-64
2022/12/13 11:04:34;;;;;;;;;;;;;;;21.14;32.14;94653.94;6096155;19;2182;-64
2022/12/13 11:06:43;;;;;;;;;;;;;;;21.15;32.45;94647.59;6117712;19;1113;-62